Time;durP1;ratioP1;P1;durP2;ratioP2;P2;SDS_P1;SDS_P2;PMS_P1;PMS_P2;Temp;Humidity;BMP_temperature;BMP_pressure;BME280_temperature;BME280_humidity;BME280_pressure;Samples;Min_cycle;Max_cycle;Signal;HPM_P1;HPM_P2
2023/11/11 00:02:50;;;;;;;1.45;0.80;;;;;;;3.51;98.08;149550.69;10417974;28;20045;-73
2023/11/11 00:07:52;;;;;;;1.73;0.98;;;;;;;3.43;98.94;149530.13;10416548;28;20520;-73
2023/11/11 00:12:53;;;;;;;1.83;1.00;;;;;;;3.35;99.38;149510.84;10417478;28;20042;-73
2023/11/11 00:17:57;;;;;;;0.95;0.88;;;;;;;3.26;99.81;149487.75;10417538;28;20052;-73
2023/11/11 00:23:05;;;;;;;1.80;0.88;;;;;;;3.26;100.00;149487.75;10416500;28;20041;-73
2023/11/11 00:28:10;;;;;;;0.95;0.70;;;;;;;3.20;100.00;149472.38;10416879;28;20045;-73
2023/11/11 00:33:13;;;;;;;1.58;0.77;;;;;;;3.40;100.00;149522.41;10417667;28;20133;-73
2023/11/11 00:38:14;;;;;;;1.00;0.77;;;;;;;3.42;100.00;149527.56;10415127;28;20452;-73
2023/11/11 00:43:16;;;;;;;0.88;0.70;;;;;;;3.24;100.00;149482.63;10416874;28;20088;-73
2023/11/11 00:48:18;;;;;;;2.92;1.10;;;;;;;3.23;100.00;149480.03;10398736;28;20145;-73
2023/11/11 00:53:20;;;;;;;0.95;0.60;;;;;;;3.13;100.00;149455.66;10414933;28;20077;-73
2023/11/11 00:58:22;;;;;;;1.63;0.90;;;;;;;3.07;100.00;149440.28;10415958;28;20051;-73
2023/11/11 01:03:23;;;;;;;2.05;1.15;;;;;;;3.05;100.00;149435.09;10415988;28;20088;-73
2023/11/11 01:08:25;;;;;;;2.15;1.00;;;;;;;2.92;100.00;149401.75;10413164;28;20051;-73
2023/11/11 01:13:27;;;;;;;1.30;0.93;;;;;;;2.92;100.00;149403.06;10415989;28;20049;-73
2023/11/11 01:18:30;;;;;;;1.98;1.10;;;;;;;2.90;100.00;149397.91;10415152;28;20103;-72
2023/11/11 01:23:33;;;;;;;1.17;0.60;;;;;;;2.87;100.00;149388.91;10415497;28;20072;-73
2023/11/11 01:28:35;;;;;;;1.80;1.15;;;;;;;2.67;100.00;149338.91;10413443;28;20057;-73
2023/11/11 01:33:37;;;;;;;1.50;1.00;;;;;;;2.49;100.00;149295.28;10414142;28;20084;-73
2023/11/11 01:38:38;;;;;;;2.25;1.15;;;;;;;2.47;100.00;149288.84;10414891;28;20042;-73
2023/11/11 01:43:40;;;;;;;2.10;1.25;;;;;;;2.78;100.00;149367.09;10414696;28;20069;-73
2023/11/11 01:48:44;;;;;;;1.55;1.10;;;;;;;2.76;100.00;149363.25;10413203;28;20083;-73
2023/11/11 01:53:46;;;;;;;2.50;1.75;;;;;;;2.89;100.00;149394.06;10414396;28;20046;-73
2023/11/11 01:58:48;;;;;;;1.45;1.17;;;;;;;2.78;100.00;149368.38;10412883;28;20065;-73
2023/11/11 02:03:50;;;;;;;3.20;1.33;;;;;;;2.81;100.00;149374.81;10396709;28;20077;-73
2023/11/11 02:08:52;;;;;;;3.05;1.45;;;;;;;2.88;100.00;149392.78;10413493;28;20069;-73
2023/11/11 02:13:55;;;;;;;2.80;1.73;;;;;;;2.90;100.00;149397.91;10414702;28;20044;-73
2023/11/11 02:18:57;;;;;;;2.00;1.50;;;;;;;2.52;100.00;149301.66;10419125;28;20042;-72
2023/11/11 02:23:59;;;;;;;1.58;1.30;;;;;;;2.56;100.00;149310.66;10422137;28;20046;-73
2023/11/11 02:29:01;;;;;;;1.92;1.52;;;;;;;2.53;100.00;149304.25;10422504;28;20041;-72
2023/11/11 02:34:03;;;;;;;2.25;1.38;;;;;;;2.67;100.00;149338.91;10420275;28;20056;-73
2023/11/11 02:39:05;;;;;;;1.92;1.40;;;;;;;2.59;100.00;149319.63;10420245;28;20448;-72
2023/11/11 02:44:08;;;;;;;1.77;1.48;;;;;;;2.39;100.00;149269.63;10420125;28;20163;-72
2023/11/11 02:49:09;;;;;;;2.47;2.05;;;;;;;2.38;100.00;149267.03;10421617;28;20466;-72
2023/11/11 02:54:11;;;;;;;3.85;2.50;;;;;;;2.47;100.00;149288.84;10403445;28;20140;-72
2023/11/11 02:59:13;;;;;;;3.70;3.05;;;;;;;2.44;100.00;149282.44;10419892;28;20513;-72
2023/11/11 03:04:15;;;;;;;4.55;3.28;;;;;;;2.68;100.00;149342.72;10418933;28;20080;-73
2023/11/11 03:09:18;;;;;;;4.75;3.88;;;;;;;2.79;100.00;149369.72;10420844;28;20504;-72
2023/11/11 03:14:20;;;;;;;3.47;3.03;;;;;;;2.61;100.00;149324.78;10420081;28;20045;-72
2023/11/11 03:19:21;;;;;;;4.45;4.03;;;;;;;2.75;100.00;149360.72;10420563;28;20512;-72
2023/11/11 03:24:23;;;;;;;4.25;3.85;;;;;;;2.74;100.00;149356.81;10419656;28;20175;-73
2023/11/11 03:29:25;;;;;;;4.82;3.65;;;;;;;2.73;100.00;149354.28;10417590;28;20065;-73
2023/11/11 03:34:27;;;;;;;3.85;3.45;;;;;;;2.66;100.00;149336.34;10419321;28;20103;-73
2023/11/11 03:39:31;;;;;;;4.07;3.67;;;;;;;2.55;100.00;149308.09;10418139;28;20581;-72
2023/11/11 03:44:33;;;;;;;5.38;4.78;;;;;;;2.69;100.00;149345.28;10418750;28;20048;-72
2023/11/11 03:49:35;;;;;;;5.85;5.28;;;;;;;2.77;100.00;149364.53;10417323;28;20489;-74
2023/11/11 03:54:38;;;;;;;6.07;5.55;;;;;;;2.85;100.00;149383.81;10417499;28;20144;-73
2023/11/11 03:59:40;;;;;;;6.63;6.03;;;;;;;2.93;100.00;149405.63;10417473;28;20056;-72
2023/11/11 04:04:43;;;;;;;8.15;7.35;;;;;;;3.23;100.00;149480.03;10418084;28;20069;-72
2023/11/11 04:09:46;;;;;;;8.18;7.38;;;;;;;3.20;100.00;149472.38;10417937;28;20037;-73
2023/11/11 04:14:48;;;;;;;8.77;7.90;;;;;;;3.41;100.00;149524.97;10416115;28;20084;-74
2023/11/11 04:19:51;;;;;;;7.90;7.20;;;;;;;3.49;100.00;149546.78;10416428;28;20048;-72
2023/11/11 04:24:54;;;;;;;8.27;7.53;;;;;;;3.46;100.00;149539.13;10415775;28;20042;-74
2023/11/11 04:29:55;;;;;;;8.05;7.25;;;;;;;3.44;100.00;149533.97;10416245;28;20052;-72
2023/11/11 04:34:57;;;;;;;7.72;6.95;;;;;;;3.61;100.00;149575.06;10417778;28;20099;-74
2023/11/11 04:39:59;;;;;;;8.02;7.22;;;;;;;3.47;100.00;149541.69;10415507;28;20049;-73
2023/11/11 04:45:01;;;;;;;10.13;7.78;;;;;;;3.47;100.00;149541.69;10417489;28;20409;-74
2023/11/11 04:50:03;;;;;;;8.98;8.07;;;;;;;3.21;100.00;149474.91;10415469;28;20496;-73
2023/11/11 04:55:05;;;;;;;9.20;8.27;;;;;;;3.37;100.00;149516.00;10416551;28;20145;-72
2023/11/11 05:00:10;;;;;;;9.60;8.73;;;;;;;3.20;100.00;149472.38;10416292;28;20045;-72
2023/11/11 05:05:12;;;;;;;10.32;9.30;;;;;;;2.98;100.00;149418.44;10414706;28;20054;-73
2023/11/11 05:10:15;;;;;;;9.15;8.23;;;;;;;3.07;100.00;149440.28;10416359;28;20045;-73
2023/11/11 05:15:19;;;;;;;10.43;9.43;;;;;;;3.08;100.00;149442.81;10415468;28;20041;-73
2023/11/11 05:20:21;;;;;;;11.18;10.07;;;;;;;3.00;100.00;149423.56;10415699;28;20045;-74
2023/11/11 05:25:22;;;;;;;9.05;8.15;;;;;;;3.19;100.00;149469.81;10413611;28;20041;-73
2023/11/11 05:30:25;;;;;;;10.95;9.85;;;;;;;3.30;100.00;149498.03;10414851;28;20463;-72
2023/11/11 05:35:27;;;;;;;8.50;7.68;;;;;;;3.09;100.00;149445.38;10415505;28;20041;-73
2023/11/11 05:40:29;;;;;;;11.43;8.20;;;;;;;2.99;100.00;149421.00;10415946;28;20045;-73
2023/11/11 05:45:32;;;;;;;13.65;9.07;;;;;;;3.05;100.00;149435.09;10413502;28;20053;-73
2023/11/11 05:50:34;;;;;;;9.82;8.85;;;;;;;2.95;100.00;149410.72;10415051;28;20046;-72
2023/11/11 05:55:36;;;;;;;9.93;8.93;;;;;;;3.20;100.00;149473.66;10423200;28;20041;-72
2023/11/11 06:00:38;;;;;;;9.75;8.70;;;;;;;3.20;100.00;149472.38;10423882;28;20050;-72
2023/11/11 06:05:39;;;;;;;10.52;9.40;;;;;;;3.01;100.00;149426.16;10422586;28;20045;-72
2023/11/11 06:10:41;;;;;;;10.80;8.07;;;;;;;3.01;100.00;149424.84;10422952;28;20068;-73
2023/11/11 06:15:44;;;;;;;9.13;8.32;;;;;;;2.93;100.00;149404.34;10421988;28;20052;-72
2023/11/11 06:20:46;;;;;;;12.13;9.27;;;;;;;3.18;100.00;149467.19;10422147;28;20405;-72
2023/11/11 06:25:48;;;;;;;9.68;8.68;;;;;;;3.34;100.00;149508.28;10422339;28;20072;-72
2023/11/11 06:30:50;;;;;;;8.63;7.82;;;;;;;3.21;100.00;149476.19;10421456;28;20091;-73
2023/11/11 06:35:52;;;;;;;8.80;7.97;;;;;;;3.27;100.00;149490.31;10421563;28;20045;-72
2023/11/11 06:40:54;;;;;;;9.48;8.55;;;;;;;3.40;100.00;149523.69;10420109;28;20068;-73
2023/11/11 06:45:57;;;;;;;10.15;9.15;;;;;;;3.56;100.00;149563.50;10421729;28;20050;-72
2023/11/11 06:50:59;;;;;;;15.52;8.02;;;;;;;3.60;100.00;149572.50;10421967;28;20045;-72
2023/11/11 06:56:00;;;;;;;8.98;7.63;;;;;;;3.60;100.00;149572.50;10420431;28;20053;-72
2023/11/11 07:01:02;;;;;;;10.02;8.32;;;;;;;3.58;100.00;149568.63;10420365;28;20037;-72
2023/11/11 07:06:06;;;;;;;9.50;8.60;;;;;;;3.84;100.00;149634.13;10419049;28;20064;-72
2023/11/11 07:11:07;;;;;;;13.15;9.32;;;;;;;3.90;100.00;149648.28;10419270;28;20382;-71
2023/11/11 07:16:17;;;;;;;9.23;8.32;;;;;;;4.04;100.00;149685.50;10420618;28;20049;-71
2023/11/11 07:21:21;;;;;;;9.48;8.57;;;;;;;4.04;100.00;149685.50;10418694;28;20045;-71
2023/11/11 07:26:25;;;;;;;8.18;7.47;;;;;;;4.11;100.00;149700.91;10419542;28;20064;-70
2023/11/11 07:31:27;;;;;;;8.25;7.35;;;;;;;4.31;100.00;149752.31;10418674;28;20083;-70
2023/11/11 07:36:29;;;;;;;8.73;7.72;;;;;;;4.37;100.00;149766.44;10418971;28;20049;-71
2023/11/11 07:41:31;;;;;;;9.27;8.38;;;;;;;4.46;100.00;149789.56;10417919;28;20037;-72
2023/11/11 07:46:35;;;;;;;7.78;6.97;;;;;;;4.61;100.00;149826.84;10419256;28;20073;-71
2023/11/11 07:51:37;;;;;;;8.73;7.93;;;;;;;4.61;100.00;149828.13;10401944;28;20501;-70
2023/11/11 07:56:42;;;;;;;9.15;8.20;;;;;;;4.79;100.00;149874.41;10422326;28;20087;-73
2023/11/11 08:01:45;;;;;;;8.23;7.35;;;;;;;4.87;100.00;149892.38;10423358;28;20045;-71
2023/11/11 08:06:47;;;;;;;8.38;7.47;;;;;;;4.90;100.00;149900.09;10417977;28;20103;-72
2023/11/11 08:11:50;;;;;;;7.95;7.25;;;;;;;4.80;100.00;149875.69;10418024;28;20147;-72
2023/11/11 08:16:54;;;;;;;7.88;7.07;;;;;;;4.84;100.00;149884.69;10418973;28;20044;-72
2023/11/11 08:21:56;;;;;;;7.45;6.68;;;;;;;4.92;100.00;149905.25;10418341;28;20045;-72
2023/11/11 08:26:58;;;;;;;8.35;7.00;;;;;;;4.97;100.00;149919.38;10419488;28;20076;-73
2023/11/11 08:32:00;;;;;;;9.02;8.23;;;;;;;5.30;100.00;150001.66;10418061;28;20140;-72
2023/11/11 08:37:04;;;;;;;7.75;6.85;;;;;;;5.35;100.00;150013.22;10418989;28;20152;-72
2023/11/11 08:42:06;;;;;;;8.02;7.22;;;;;;;5.43;100.00;150033.81;10418888;28;20500;-72
2023/11/11 08:47:08;;;;;;;8.30;7.38;;;;;;;5.86;100.00;150141.88;10417645;28;20051;-71
2023/11/11 08:52:10;;;;;;;11.00;7.75;;;;;;;6.23;100.00;150235.81;10418058;28;20511;-72
2023/11/11 08:57:13;;;;;;;7.40;6.18;;;;;;;6.31;100.00;150256.41;10416932;28;20048;-72
2023/11/11 09:02:15;;;;;;;9.95;7.45;;;;;;;6.55;100.00;150318.22;10400757;28;20042;-73
2023/11/11 09:07:16;;;;;;;7.70;6.95;;;;;;;6.54;100.00;150314.31;10439549;28;20079;-72
2023/11/11 09:12:18;;;;;;;7.70;6.90;;;;;;;6.71;100.00;150358.09;10422867;28;20037;-74
2023/11/11 09:17:24;;;;;;;8.93;8.00;;;;;;;6.83;100.00;150387.72;10457353;28;20049;-72
2023/11/11 09:22:26;;;;;;;7.25;6.55;;;;;;;7.20;96.01;150481.69;10433870;28;20037;-73
2023/11/11 09:27:30;;;;;;;6.47;5.85;;;;;;;7.28;94.97;150501.03;10432544;28;20044;-73
2023/11/11 09:32:32;;;;;;;9.20;7.38;;;;;;;7.34;96.37;150516.44;10414291;28;20424;-71
2023/11/11 09:37:34;;;;;;;7.75;6.63;;;;;;;7.48;92.31;150551.22;10419866;28;20036;-73
2023/11/11 09:42:40;;;;;;;6.80;6.20;;;;;;;7.52;92.70;150562.81;10459100;28;20090;-73
2023/11/11 09:47:44;;;;;;;;;;;;;;;7.66;92.65;150596.31;10458775;28;20075;-73
2023/11/11 09:52:48;;;;;;;7.30;6.47;;;;;;;7.59;92.80;150580.88;10432309;28;19929;-73
2023/11/11 09:57:52;;;;;;;7.60;6.90;;;;;;;7.84;88.50;150642.72;10415810;28;20463;-72
2023/11/11 10:02:54;;;;;;;6.85;6.15;;;;;;;8.03;87.64;150691.69;10415544;28;20095;-73
2023/11/11 10:07:56;;;;;;;7.03;6.32;;;;;;;8.30;84.10;150759.97;10415918;28;20046;-73
2023/11/11 10:12:58;;;;;;;7.45;6.75;;;;;;;8.27;83.92;150752.22;10397302;28;20095;-75
2023/11/11 10:18:03;;;;;;;6.72;6.13;;;;;;;7.98;88.11;150678.81;10416058;28;20071;-75
2023/11/11 10:23:06;;;;;;;6.60;6.00;;;;;;;8.23;85.26;150740.63;10416220;28;20042;-74
2023/11/11 10:28:16;;;;;;;7.43;6.63;;;;;;;8.27;85.78;150752.22;10415315;28;20532;-74
2023/11/11 10:33:18;;;;;;;7.65;6.88;;;;;;;8.07;85.58;150702.00;10414139;28;20461;-72
2023/11/11 10:38:20;;;;;;;6.60;6.00;;;;;;;7.68;89.34;150601.50;10415713;28;20064;-72
2023/11/11 10:43:25;;;;;;;6.40;5.78;;;;;;;7.51;91.84;150560.25;10421400;28;20041;-72
2023/11/11 10:48:29;;;;;;;6.72;6.13;;;;;;;7.67;88.71;150598.94;10422589;28;20121;-72
2023/11/11 10:53:31;;;;;;;6.82;6.13;;;;;;;7.57;90.58;150574.47;10422286;28;20124;-73
2023/11/11 10:58:38;;;;;;;3.72;3.35;;;;;;;7.36;87.65;150520.34;10420897;28;20111;-73
2023/11/11 11:03:40;;;;;;;;;;;;;;;7.50;85.72;150556.41;10421958;28;20037;-73
2023/11/11 11:09:14;;;;;;;2.60;2.20;;;;;;;7.25;89.27;150493.28;10423074;28;20047;-73
2023/11/11 11:14:26;;;;;;;1.90;1.60;;;;;;;7.34;88.19;150517.75;10421793;28;20466;-71
2023/11/11 11:19:27;;;;;;;1.92;1.52;;;;;;;7.23;89.58;150488.16;10421340;28;20073;-72
2023/11/11 11:24:32;;;;;;;1.77;1.13;;;;;;;7.19;90.54;150477.84;10420114;28;20469;-73
2023/11/11 11:29:34;;;;;;;1.00;0.73;;;;;;;7.04;91.20;150441.81;10422599;28;20449;-72
2023/11/11 11:34:43;;;;;;;0.90;0.77;;;;;;;6.69;93.12;150351.69;10422654;28;20128;-73
2023/11/11 11:39:58;;;;;;;0.80;0.60;;;;;;;6.83;93.10;150389.00;10438157;28;20091;-72
2023/11/11 11:45:01;;;;;;;0.40;0.40;;;;;;;6.69;95.28;150352.97;10422206;28;20463;-73
2023/11/11 11:50:03;;;;;;;0.85;0.50;;;;;;;6.79;95.65;150377.41;10421990;28;20424;-72
2023/11/11 11:55:05;;;;;;;0.88;0.50;;;;;;;6.69;97.88;150351.69;10421324;28;20038;-72
2023/11/11 12:00:13;;;;;;;0.90;0.70;;;;;;;6.59;99.28;150327.19;10420228;28;20427;-72
2023/11/11 12:05:15;;;;;;;1.55;0.60;;;;;;;6.80;99.35;150381.25;10420368;28;20493;-72
2023/11/11 12:10:18;;;;;;;0.82;0.65;;;;;;;6.97;99.77;150423.75;10419600;28;20397;-72
2023/11/11 12:15:20;;;;;;;0.47;0.47;;;;;;;6.85;98.94;150392.84;10417225;28;20053;-72
2023/11/11 12:20:38;;;;;;;1.00;0.60;;;;;;;6.48;100.00;150300.19;10418328;28;20045;-73
2023/11/11 12:25:43;;;;;;;0.70;0.70;;;;;;;6.64;100.00;150338.75;10399801;28;20222;-71
2023/11/11 12:30:45;;;;;;;0.63;0.60;;;;;;;6.53;100.00;150313.03;10416597;28;20041;-71
2023/11/11 12:35:47;;;;;;;0.50;0.50;;;;;;;6.43;100.00;150286.03;10417520;28;20045;-71
2023/11/11 12:40:51;;;;;;;0.70;0.70;;;;;;;6.40;100.00;150278.28;10416482;28;20092;-73
2023/11/11 12:45:54;;;;;;;1.50;0.60;;;;;;;6.34;100.00;150264.16;10416433;28;20099;-71
2023/11/11 12:51:03;;;;;;;0.65;0.40;;;;;;;6.22;100.00;150233.25;10426089;28;20034;-73
2023/11/11 12:56:09;;;;;;;0.60;0.30;;;;;;;5.99;100.00;150175.38;10421423;28;20037;-73
2023/11/11 13:01:11;;;;;;;0.38;0.20;;;;;;;5.75;100.00;150116.09;10416808;28;20141;-73
2023/11/11 13:06:15;;;;;;;0.20;0.20;;;;;;;5.74;100.00;150113.53;10418853;28;20049;-72
2023/11/11 13:11:17;;;;;;;0.40;0.20;;;;;;;5.69;100.00;150100.69;10416025;28;20042;-73
2023/11/11 13:16:19;;;;;;;0.52;0.10;;;;;;;5.49;100.00;150049.22;10417445;28;20045;-73
2023/11/11 13:21:27;;;;;;;1.10;0.20;;;;;;;5.36;100.00;150015.78;10417386;28;20401;-73
2023/11/11 13:26:28;;;;;;;0.20;0.20;;;;;;;5.37;100.00;150019.69;10401538;23;20472;-75
2023/11/11 13:31:46;;;;;;;1.30;0.30;;;;;;;5.30;100.00;150002.94;10376542;28;20038;-76
2023/11/11 13:36:48;;;;;;;0.73;0.22;;;;;;;5.27;100.00;149995.25;10376342;28;20558;-75
2023/11/11 13:41:51;;;;;;;3.00;0.20;;;;;;;5.49;100.00;150049.22;10375712;28;20100;-76
2023/11/11 13:46:59;;;;;;;0.40;0.20;;;;;;;5.36;100.00;150017.13;10374997;28;20077;-75
2023/11/11 13:52:04;;;;;;;0.50;0.35;;;;;;;5.57;100.00;150071.09;10374902;28;20113;-76
2023/11/11 13:57:06;;;;;;;0.50;0.47;;;;;;;5.65;100.00;150090.41;10375889;28;20073;-77
2023/11/11 14:02:11;;;;;;;0.63;0.57;;;;;;;5.66;100.00;150092.94;10374910;28;20050;-76
2023/11/11 14:07:27;;;;;;;3.67;3.20;;;;;;;5.65;100.00;150090.41;10375536;28;20088;-75
2023/11/11 14:12:37;;;;;;;4.82;4.32;;;;;;;5.63;100.00;150085.28;10375256;28;20042;-76
2023/11/11 14:17:47;;;;;;;13.00;9.55;;;;;;;5.82;100.00;150132.84;10379506;28;20070;-76
2023/11/11 14:22:52;;;;;;;164.82;60.38;;;;;;;5.78;100.00;150123.84;10341089;28;20543;-77
2023/11/11 14:28:11;;;;;;;13.70;11.50;;;;;;;5.85;100.00;150140.59;10341429;28;20046;-76
2023/11/11 14:33:14;;;;;;;29.98;23.58;;;;;;;5.93;100.00;150161.22;10343793;28;20045;-76
2023/11/11 14:38:24;;;;;;;18.20;16.27;;;;;;;5.96;100.00;150168.91;10343955;28;20053;-76
2023/11/11 14:43:26;;;;;;;13.27;10.73;;;;;;;5.73;100.00;150109.69;10341743;28;20045;-76
2023/11/11 14:48:47;;;;;;;67.90;29.13;;;;;;;5.86;100.00;150143.16;10341658;28;20097;-75
2023/11/11 14:53:52;;;;;;;3.25;2.15;;;;;;;5.95;100.00;150165.06;10340398;28;20509;-76
2023/11/11 14:58:54;;;;;;;9.18;6.00;;;;;;;5.95;100.00;150165.06;10357167;28;20050;-77
2023/11/11 15:04:00;;;;;;;10.18;7.85;;;;;;;5.94;100.00;150162.50;10341207;28;20062;-75
2023/11/11 15:09:21;;;;;;;52.67;24.38;;;;;;;6.04;100.00;150189.50;10340105;28;20042;-76
2023/11/11 15:14:23;;;;;;;6.65;4.78;;;;;;;6.01;100.00;150181.75;10340101;28;20048;-76
2023/11/11 15:19:26;;;;;;;2.58;2.38;;;;;;;5.94;100.00;150163.78;10340768;28;20163;-75
2023/11/11 15:24:36;;;;;;;2.92;2.30;;;;;;;5.82;100.00;150134.13;10338192;28;20042;-76
2023/11/11 15:29:39;;;;;;;4.03;3.20;;;;;;;5.97;100.00;150171.47;10365656;28;20069;-76
2023/11/11 15:34:44;;;;;;;3.75;3.35;;;;;;;5.85;100.00;150139.31;10378488;28;20053;-76
2023/11/11 15:39:48;;;;;;;2.83;2.10;;;;;;;6.09;100.00;150201.09;10380693;28;20116;-77
2023/11/11 15:44:51;;;;;;;4.30;3.90;;;;;;;6.06;100.00;150193.34;10379134;28;20050;-76
2023/11/11 15:49:58;;;;;;;2.70;1.92;;;;;;;5.99;100.00;150176.66;10378824;28;20037;-75
2023/11/11 15:55:06;;;;;;;2.63;2.42;;;;;;;5.86;100.00;150143.16;10377450;28;20046;-75
2023/11/11 16:00:13;;;;;;;3.42;3.13;;;;;;;5.81;100.00;150130.28;10376959;28;20053;-75
2023/11/11 16:05:15;;;;;;;4.32;2.78;;;;;;;5.85;100.00;150139.31;10378686;28;20071;-74
2023/11/11 16:10:17;;;;;;;4.72;4.35;;;;;;;5.83;100.00;150135.41;10378945;28;20477;-75
2023/11/11 16:15:19;;;;;;;3.83;3.53;;;;;;;5.67;100.00;150094.28;10379076;28;20133;-75
2023/11/11 16:20:21;;;;;;;3.20;2.90;;;;;;;5.68;100.00;150096.84;10378445;28;20049;-75
2023/11/11 16:25:22;;;;;;;3.30;3.00;;;;;;;5.85;100.00;150140.59;10377943;28;20042;-75
2023/11/11 16:30:25;;;;;;;3.50;3.03;;;;;;;5.71;100.00;150104.53;10378097;28;20080;-75
2023/11/11 16:35:27;;;;;;;3.08;2.50;;;;;;;5.92;100.00;150157.34;10377950;28;20042;-75
2023/11/11 16:40:29;;;;;;;2.88;2.45;;;;;;;6.07;100.00;150195.94;10378892;28;20158;-76
2023/11/11 16:45:30;;;;;;;2.40;2.20;;;;;;;6.05;100.00;150192.06;10379315;28;20461;-74
2023/11/11 16:50:34;;;;;;;4.10;2.95;;;;;;;6.12;100.00;150208.81;10379586;28;20057;-76
2023/11/11 16:55:37;;;;;;;2.42;1.80;;;;;;;6.18;100.00;150224.25;10380978;28;20058;-74
2023/11/11 17:00:40;;;;;;;2.78;1.88;;;;;;;6.07;100.00;150195.94;10379951;28;20482;-74
2023/11/11 17:05:44;;;;;;;2.38;1.45;;;;;;;6.00;100.00;150177.94;10377207;28;20042;-74
2023/11/11 17:10:48;;;;;;;1.38;1.20;;;;;;;6.00;100.00;150177.94;10378533;28;20045;-74
2023/11/11 17:15:50;;;;;;;1.27;1.17;;;;;;;5.92;100.00;150158.63;10377835;28;20129;-74
2023/11/11 17:20:52;;;;;;;2.08;1.00;;;;;;;5.99;100.00;150175.38;10378533;28;20556;-74
2023/11/11 17:25:54;;;;;;;1.30;1.10;;;;;;;5.90;100.00;150153.44;10377205;28;20144;-74
2023/11/11 17:30:57;;;;;;;1.17;1.00;;;;;;;5.88;100.00;150148.28;10379322;28;20136;-73
2023/11/11 17:35:59;;;;;;;2.33;1.60;;;;;;;5.90;100.00;150153.44;10377241;28;20088;-73
2023/11/11 17:41:01;;;;;;;2.30;1.60;;;;;;;5.90;100.00;150153.44;10378185;28;20092;-74
2023/11/11 17:46:04;;;;;;;2.15;1.10;;;;;;;5.89;100.00;150149.56;10377370;28;20478;-75
2023/11/11 17:51:13;;;;;;;1.65;0.98;;;;;;;5.89;100.00;150150.88;10384087;28;20050;-75
2023/11/11 17:56:27;;;;;;;1.88;1.08;;;;;;;5.91;100.00;150154.72;10383871;28;20064;-75
2023/11/11 18:01:38;;;;;;;1.65;1.10;;;;;;;5.91;100.00;150156.00;10385215;28;20066;-74
2023/11/11 18:06:41;;;;;;;1.90;1.25;;;;;;;5.94;100.00;150163.78;10384744;28;20053;-75
2023/11/11 18:11:43;;;;;;;1.55;1.30;;;;;;;5.99;100.00;150176.66;10404413;28;20060;-74
2023/11/11 18:16:47;;;;;;;1.27;1.08;;;;;;;5.85;100.00;150140.59;10399656;28;20041;-75
2023/11/11 18:21:49;;;;;;;1.30;0.95;;;;;;;5.75;100.00;150114.81;10423338;28;20048;-74
2023/11/11 18:26:51;;;;;;;1.75;1.30;;;;;;;5.93;100.00;150159.91;10395059;28;20077;-74
2023/11/11 18:31:53;;;;;;;2.70;1.67;;;;;;;5.92;100.00;150158.63;10384823;28;20410;-75
2023/11/11 18:36:55;;;;;;;1.70;1.17;;;;;;;5.94;100.00;150163.78;10384913;28;20046;-75
2023/11/11 18:41:56;;;;;;;1.83;1.50;;;;;;;6.03;98.58;150186.94;10393789;28;20080;-76
2023/11/11 18:46:59;;;;;;;1.50;1.10;;;;;;;5.93;100.00;150161.22;10421917;28;20052;-74
2023/11/11 18:52:01;;;;;;;1.70;1.35;;;;;;;6.00;100.00;150177.94;10422690;28;20505;-74
2023/11/11 18:57:03;;;;;;;1.60;1.10;;;;;;;6.00;100.00;150179.22;10421798;28;20095;-74
2023/11/11 19:02:05;;;;;;;2.53;2.22;;;;;;;6.07;98.20;150197.25;10422974;28;20507;-74
2023/11/11 19:07:07;;;;;;;1.50;1.40;;;;;;;6.02;99.46;150184.38;10422537;28;20423;-74
2023/11/11 19:12:09;;;;;;;4.65;3.58;;;;;;;6.00;98.01;150177.94;10421029;28;20088;-74
2023/11/11 19:17:11;;;;;;;4.90;3.42;;;;;;;6.04;98.20;150189.50;10422120;28;20418;-74
2023/11/11 19:22:13;;;;;;;3.95;3.28;;;;;;;6.07;98.25;150197.25;10422238;28;20057;-73
2023/11/11 19:27:14;;;;;;;5.05;3.83;;;;;;;6.00;97.52;150179.22;10390132;22;20081;-79
2023/11/11 19:32:17;;;;;;;4.03;2.88;;;;;;;6.06;97.37;150193.34;10343399;28;20129;-74
2023/11/11 19:37:20;;;;;;;1.50;1.08;;;;;;;6.01;97.80;150180.47;10340812;28;20108;-75
2023/11/11 19:42:21;;;;;;;2.38;1.65;;;;;;;5.89;99.17;150150.88;10342154;28;20489;-74
2023/11/11 19:47:24;;;;;;;1.58;1.30;;;;;;;5.97;98.23;150170.19;10343023;28;20390;-74
2023/11/11 19:52:26;;;;;;;3.95;1.55;;;;;;;6.00;97.06;150177.94;10341395;28;20035;-76
2023/11/11 19:57:28;;;;;;;1.90;1.60;;;;;;;5.90;98.64;150153.44;10342997;28;20054;-75
2023/11/11 20:02:31;;;;;;;1.60;1.45;;;;;;;6.04;96.10;150189.50;10341621;28;20043;-75
2023/11/11 20:07:35;;;;;;;1.95;1.35;;;;;;;6.05;95.96;150192.06;10341517;28;20068;-75
2023/11/11 20:12:38;;;;;;;1.90;1.30;;;;;;;6.05;95.20;150190.78;10341480;28;20521;-75
2023/11/11 20:17:40;;;;;;;1.58;1.27;;;;;;;5.93;97.46;150159.91;10342544;28;20046;-75
2023/11/11 20:22:42;;;;;;;1.35;1.25;;;;;;;5.95;97.17;150165.06;10341627;28;20039;-75
2023/11/11 20:27:44;;;;;;;1.73;1.48;;;;;;;6.03;95.80;150186.94;10339875;28;20092;-75
2023/11/11 20:32:46;;;;;;;2.63;2.05;;;;;;;6.02;95.69;150183.03;10338679;28;20046;-74
2023/11/11 20:37:48;;;;;;;4.07;2.95;;;;;;;6.03;95.43;150185.66;10339574;28;20402;-75
2023/11/11 20:42:51;;;;;;;2.30;1.80;;;;;;;5.86;98.51;150141.88;10339907;28;20049;-75
2023/11/11 20:47:53;;;;;;;2.08;1.45;;;;;;;5.94;97.96;150163.78;10338201;28;20054;-75
2023/11/11 20:52:55;;;;;;;2.38;1.35;;;;;;;5.87;96.70;150144.41;10337254;28;20041;-75
2023/11/11 20:57:57;;;;;;;2.90;2.63;;;;;;;5.94;96.13;150162.50;10338587;28;20050;-74
2023/11/11 21:03:01;;;;;;;2.10;1.63;;;;;;;6.09;94.91;150199.81;10338457;28;20434;-75
2023/11/11 21:08:03;;;;;;;1.55;1.30;;;;;;;5.88;98.19;150148.28;10338139;28;20042;-74
2023/11/11 21:13:06;;;;;;;1.83;1.30;;;;;;;5.97;97.40;150170.19;10338513;28;20045;-74
2023/11/11 21:18:07;;;;;;;2.13;1.33;;;;;;;5.81;98.05;150131.56;10337197;28;20054;-74
2023/11/11 21:23:09;;;;;;;1.77;1.25;;;;;;;5.86;98.36;150143.16;10335596;28;20077;-74
2023/11/11 21:28:11;;;;;;;3.30;1.27;;;;;;;5.73;99.14;150109.69;10343053;28;20042;-72
2023/11/11 21:33:13;;;;;;;1.50;1.40;;;;;;;5.72;99.49;150107.13;10342844;28;20137;-73
2023/11/11 21:38:16;;;;;;;1.63;1.20;;;;;;;5.73;100.00;150110.97;10343448;28;20050;-72
2023/11/11 21:43:18;;;;;;;2.45;1.40;;;;;;;5.74;100.00;150113.53;10344382;28;20107;-72
2023/11/11 21:48:20;;;;;;;2.30;1.20;;;;;;;5.64;100.00;150086.56;10345265;28;20046;-73
2023/11/11 21:53:22;;;;;;;1.27;1.05;;;;;;;5.72;100.00;150107.13;10343943;28;20395;-72
2023/11/11 21:58:24;;;;;;;1.83;1.30;;;;;;;5.74;100.00;150113.53;10328557;28;20047;-72
2023/11/11 22:03:26;;;;;;;2.00;1.20;;;;;;;5.81;97.12;150131.56;10343337;28;20062;-72
2023/11/11 22:08:27;;;;;;;1.52;1.00;;;;;;;5.89;97.38;150149.56;10344341;28;20069;-72
2023/11/11 22:13:29;;;;;;;1.27;1.15;;;;;;;5.82;96.78;150134.13;10341070;28;20042;-72
2023/11/11 22:18:31;;;;;;;1.33;1.05;;;;;;;5.81;96.87;150131.56;10339587;28;20086;-72
2023/11/11 22:23:33;;;;;;;2.35;1.00;;;;;;;5.86;96.26;150143.16;10340224;28;20039;-72
2023/11/11 22:28:35;;;;;;;2.33;1.23;;;;;;;5.84;96.64;150137.97;10339568;28;20477;-72
2023/11/11 22:33:37;;;;;;;2.17;1.60;;;;;;;5.85;97.15;150139.31;10341624;28;20394;-72
2023/11/11 22:38:39;;;;;;;2.03;1.17;;;;;;;5.85;96.33;150140.59;10348075;28;20042;-72
2023/11/11 22:43:41;;;;;;;2.33;1.40;;;;;;;5.87;96.20;150144.41;10347969;28;20459;-72
2023/11/11 22:48:47;;;;;;;1.60;1.10;;;;;;;5.85;95.55;150139.31;10349066;28;20050;-72
2023/11/11 22:53:49;;;;;;;1.92;1.27;;;;;;;5.86;95.45;150143.16;10346710;28;20053;-72
2023/11/11 22:58:51;;;;;;;2.13;1.10;;;;;;;5.78;100.00;150123.84;10346320;28;20494;-72
2023/11/11 23:03:54;;;;;;;1.48;1.13;;;;;;;5.77;100.00;150121.28;10348460;28;20081;-72
2023/11/11 23:08:57;;;;;;;1.45;1.30;;;;;;;5.76;100.00;150118.72;10347775;28;20575;-73
2023/11/11 23:14:00;;;;;;;2.15;1.70;;;;;;;5.68;100.00;150096.84;10347220;28;20049;-71
2023/11/11 23:19:03;;;;;;;3.30;1.83;;;;;;;5.77;100.00;150121.28;10346195;28;20050;-71